MSC Leanne — 3EXH3 — position and weather

sailwx.info

Track history (hours):
 
Tides and Currents Weather Stations Pressure Air Temp Water Temp Dewpoint Dewpoint Depression Visibility Wind Speed Wind Dir Waves Ship Positions

MSC Leanne

Last reported at 2015-Apr-27 20:22 UTC. Time now 2015-May-05 06:12 UTC.
Position N 25°41' W 076°43'.

Length 294 m; draft 10.2 m.

Type: Ship (hazmat cat A). MMSI: 357723000.

Date/timePositionNaut miles runAvg speedWind from/ knotsBaromVisibWave heightAir tempDewpointWater temp
2015-Apr-27 20:22N 25°41' W 076°43'1721.6
2015-Apr-27 19:33N 25°43' W 077°02'2220.5
2015-Apr-27 18:30N 25°49' W 077°26'2021.6
2015-Apr-27 17:33N 25°58' W 077°46'6418.8
2015-Apr-27 14:10N 26°29' W 078°48'3 4.9
2015-Apr-27 13:34N 26°31' W 078°46'0 0.2
2015-Apr-27 12:08N 26°32' W 078°46'0 0.0
2015-Apr-27 11:17N 26°32' W 078°46'0 0.0
2015-Apr-26 12:05N 26°32' W 078°46'  
2015-Apr-24 04:33N 26°14' W 078°41'0 0.2
2015-Apr-24 02:21N 26°15' W 078°41'1 0.1
2015-Apr-23 08:09N 26°13' W 078°41'0 0.2
2015-Apr-23 06:26N 26°13' W 078°42'0 0.2
2015-Apr-23 04:21N 26°13' W 078°42'0 0.2
2015-Apr-23 02:32N 26°14' W 078°42'0 0.2
2015-Apr-23 01:28N 26°14' W 078°43'  
Track history (hours):
 
Tides and Currents Weather Stations Pressure Air Temp Water Temp Dewpoint Dewpoint Depression Visibility Wind Speed Wind Dir Waves Ship Positions

MSC Leanne

Last reported at 2015-Apr-27 20:22 UTC. Time now 2015-May-05 06:12 UTC.
Position N 25°41' W 076°43'.

Length 294 m; draft 10.2 m.

Type: Ship (hazmat cat A). MMSI: 357723000.

Date/timePositionNaut miles runAvg speedWind from/ knotsBaromVisibWave heightAir tempDewpointWater temp
2015-Apr-27 20:22N 25°41' W 076°43'1721.6
2015-Apr-27 19:33N 25°43' W 077°02'2220.5
2015-Apr-27 18:30N 25°49' W 077°26'2021.6
2015-Apr-27 17:33N 25°58' W 077°46'6418.8
2015-Apr-27 14:10N 26°29' W 078°48'3 4.9
2015-Apr-27 13:34N 26°31' W 078°46'0 0.2
2015-Apr-27 12:08N 26°32' W 078°46'0 0.0
2015-Apr-27 11:17N 26°32' W 078°46'0 0.0
2015-Apr-26 12:05N 26°32' W 078°46'  
2015-Apr-24 04:33N 26°14' W 078°41'0 0.2
2015-Apr-24 02:21N 26°15' W 078°41'1 0.1
2015-Apr-23 08:09N 26°13' W 078°41'0 0.2
2015-Apr-23 06:26N 26°13' W 078°42'0 0.2
2015-Apr-23 04:21N 26°13' W 078°42'0 0.2
2015-Apr-23 02:32N 26°14' W 078°42'0 0.2
2015-Apr-23 01:28N 26°14' W 078°43'  

Dump ship's entire track history